Time,TemperatureF,DewpointF,PressureIn,WindDirection,WindDirectionDegrees,WindSpeedMPH,WindSpeedGustMPH,Humidity,HourlyPrecipIn,Conditions,Clouds,dailyrainin,SoftwareType,DateUTC
2013-06-18 00:00:00,76.8,76.5,30.05,SW,221,10.0,11.0,99,0.00,,---,0.00,VWS V14.00,2013-06-18 04:00:00,
2013-06-18 00:01:00,76.8,76.5,30.05,SW,215,11.0,12.0,99,0.00,,---,0.00,VWS V14.00,2013-06-18 04:01:00,
2013-06-18 00:02:00,76.9,76.6,30.05,SW,218,10.0,14.0,99,0.00,,---,0.00,VWS V14.00,2013-06-18 04:02:00,
2013-06-18 00:07:00,76.9,76.6,30.05,SW,227,9.0,18.0,99,0.00,,---,0.00,VWS V14.00,2013-06-18 04:07:00,
2013-06-18 00:12:00,76.9,76.6,30.05,SW,224,13.0,19.0,99,0.00,,---,0.00,VWS V14.00,2013-06-18 04:12:00,
2013-06-18 00:17:00,76.9,76.6,30.05,SW,229,16.0,19.0,99,0.00,,---,0.00,VWS V14.00,2013-06-18 04:17:00,
2013-06-18 00:22:00,77.0,76.7,30.05,SW,228,12.0,19.0,99,0.00,,---,0.00,VWS V14.00,2013-06-18 04:22:00,
2013-06-18 00:27:00,77.0,77.0,30.05,SW,229,11.0,19.0,100,0.00,,---,0.00,VWS V14.00,2013-06-18 04:27:00,
2013-06-18 00:32:00,77.0,77.0,30.05,SW,217,10.0,16.0,100,0.00,,---,0.00,VWS V14.00,2013-06-18 04:32:00,
2013-06-18 00:37:00,77.0,77.0,30.04,SW,227,12.0,17.0,100,0.00,,---,0.00,VWS V14.00,2013-06-18 04:37:00,
2013-06-18 00:42:00,77.0,77.0,30.04,SW,234,13.0,17.0,100,0.00,,---,0.00,VWS V14.00,2013-06-18 04:42:00,
2013-06-18 00:47:00,77.1,77.1,30.04,SW,233,13.0,17.0,100,0.00,,---,0.00,VWS V14.00,2013-06-18 04:47:00,
2013-06-18 00:52:00,77.1,77.1,30.04,SW,230,10.0,17.0,100,0.00,,---,0.00,VWS V14.00,2013-06-18 04:52:00,
2013-06-18 00:57:00,77.0,77.0,30.04,SW,231,11.0,19.0,100,0.00,,---,0.00,VWS V14.00,2013-06-18 04:57:00,
2013-06-18 01:02:00,77.0,76.7,30.04,SW,234,11.0,16.0,99,0.00,,---,0.00,VWS V14.00,2013-06-18 05:02:00,
2013-06-18 01:07:00,77.0,76.7,30.03,SW,222,8.0,16.0,99,0.00,,---,0.00,VWS V14.00,2013-06-18 05:07:00,
2013-06-18 01:12:00,77.0,76.7,30.03,SW,218,10.0,16.0,99,0.00,,---,0.00,VWS V14.00,2013-06-18 05:12:00,
2013-06-18 01:17:00,77.1,77.1,30.03,SW,222,11.0,16.0,100,0.00,,---,0.00,VWS V14.00,2013-06-18 05:17:00,
2013-06-18 01:22:00,77.1,77.1,30.03,SW,227,11.0,17.0,100,0.00,,---,0.00,VWS V14.00,2013-06-18 05:22:00,
2013-06-18 01:27:00,77.1,77.1,30.03,SW,220,12.0,17.0,100,0.00,,---,0.00,VWS V14.00,2013-06-18 05:27:00,
2013-06-18 01:32:00,77.1,77.1,30.03,SW,229,13.0,17.0,100,0.00,,---,0.00,VWS V14.00,2013-06-18 05:32:00,
2013-06-18 01:37:00,77.2,77.2,30.02,SW,224,11.0,17.0,100,0.00,,---,0.00,VWS V14.00,2013-06-18 05:37:00,
2013-06-18 01:42:00,77.2,77.2,30.02,SW,232,13.0,18.0,100,0.00,,---,0.00,VWS V14.00,2013-06-18 05:42:00,
2013-06-18 01:47:00,77.2,77.2,30.01,SW,226,14.0,18.0,100,0.00,,---,0.00,VWS V14.00,2013-06-18 05:47:00,
2013-06-18 01:52:00,77.2,77.2,30.01,SW,229,13.0,19.0,100,0.00,,---,0.00,VWS V14.00,2013-06-18 05:52:00,
2013-06-18 01:58:00,77.2,77.2,30.01,SW,232,17.0,19.0,100,0.00,,---,0.00,VWS V14.00,2013-06-18 05:58:00,
2013-06-18 02:02:00,77.0,75.5,30.01,SW,230,14.0,15.0,95,0.00,,---,0.00,VWS V14.00,2013-06-18 06:02:00,
2013-06-18 02:07:00,76.8,75.3,30.01,SSW,213,12.0,20.0,95,0.00,,---,0.00,VWS V14.00,2013-06-18 06:07:00,
2013-06-18 02:12:00,76.9,76.3,30.01,SSW,211,17.0,20.0,98,0.00,,---,0.00,VWS V14.00,2013-06-18 06:12:00,
2013-06-18 02:17:00,77.1,77.1,30.01,SSW,211,14.0,20.0,100,0.00,,---,0.00,VWS V14.00,2013-06-18 06:17:00,
2013-06-18 02:22:00,77.1,77.1,30.01,SW,216,12.0,20.0,100,0.00,,---,0.00,VWS V14.00,2013-06-18 06:22:00,
2013-06-18 02:27:00,77.2,77.2,30.00,SW,221,14.0,20.0,100,0.00,,---,0.00,VWS V14.00,2013-06-18 06:27:00,
2013-06-18 02:32:00,77.2,77.2,30.00,SW,219,14.0,18.0,100,0.00,,---,0.00,VWS V14.00,2013-06-18 06:32:00,
2013-06-18 02:37:00,77.3,77.3,30.00,SSW,211,10.0,18.0,100,0.00,,---,0.00,VWS V14.00,2013-06-18 06:37:00,
2013-06-18 02:42:00,77.3,77.3,30.00,SW,215,10.0,18.0,100,0.00,,---,0.00,VWS V14.00,2013-06-18 06:42:00,
2013-06-18 02:47:00,77.3,77.3,30.00,SW,226,16.0,20.0,100,0.00,,---,0.00,VWS V14.00,2013-06-18 06:47:00,
2013-06-18 02:52:00,77.3,77.3,30.00,SW,222,15.0,20.0,100,0.00,,---,0.00,VWS V14.00,2013-06-18 06:52:00,
2013-06-18 02:57:00,77.4,77.4,30.00,SW,232,14.0,21.0,100,0.00,,---,0.00,VWS V14.00,2013-06-18 06:57:00,
2013-06-18 03:02:00,77.4,77.4,29.99,SW,221,16.0,19.0,100,0.00,,---,0.00,VWS V14.00,2013-06-18 07:02:00,
2013-06-18 03:07:00,77.4,77.4,29.99,SW,221,13.0,19.0,100,0.00,,---,0.00,VWS V14.00,2013-06-18 07:07:00,
2013-06-18 03:12:00,77.3,77.3,29.99,SW,226,9.0,19.0,100,0.00,,---,0.00,VWS V14.00,2013-06-18 07:12:00,
2013-06-18 03:17:00,77.4,77.4,29.99,SW,216,13.0,19.0,100,0.00,,---,0.00,VWS V14.00,2013-06-18 07:17:00,
2013-06-18 03:22:00,77.4,77.4,29.99,SW,221,13.0,19.0,100,0.00,,---,0.00,VWS V14.00,2013-06-18 07:22:00,
2013-06-18 03:27:00,77.4,77.4,29.99,WSW,250,15.0,19.0,100,0.00,,---,0.00,VWS V14.00,2013-06-18 07:27:00,
2013-06-18 03:32:00,76.4,76.4,29.99,SW,223,12.0,26.0,100,0.12,,---,0.12,VWS V14.00,2013-06-18 07:32:00,
2013-06-18 03:37:00,75.1,75.1,29.99,SW,229,8.0,26.0,100,0.11,,---,0.12,VWS V14.00,2013-06-18 07:37:00,
2013-06-18 03:42:00,74.5,74.5,29.98,WSW,239,9.0,26.0,100,0.10,,---,0.12,VWS V14.00,2013-06-18 07:42:00,
2013-06-18 03:47:00,74.7,74.7,29.99,West,261,9.0,26.0,100,0.09,,---,0.12,VWS V14.00,2013-06-18 07:47:00,
2013-06-18 03:52:00,74.8,74.8,29.99,WNW,288,11.0,26.0,100,0.09,,---,0.13,VWS V14.00,2013-06-18 07:52:00,
2013-06-18 03:57:00,74.9,74.9,29.98,SSW,201,5.0,26.0,100,0.09,,---,0.13,VWS V14.00,2013-06-18 07:57:00,
2013-06-18 04:02:00,75.0,75.0,29.98,SW,224,11.0,11.0,100,0.08,,---,0.13,VWS V14.00,2013-06-18 08:02:00,
2013-06-18 04:07:00,75.3,75.3,29.98,SW,229,12.0,12.0,100,0.07,,---,0.13,VWS V14.00,2013-06-18 08:07:00,
2013-06-18 04:12:00,75.5,75.5,29.98,WSW,244,9.0,16.0,100,0.07,,---,0.13,VWS V14.00,2013-06-18 08:12:00,
2013-06-18 04:17:00,75.5,75.5,29.98,WSW,237,9.0,16.0,100,0.06,,---,0.13,VWS V14.00,2013-06-18 08:17:00,
2013-06-18 04:22:00,75.3,75.3,29.98,SW,229,10.0,16.0,100,0.06,,---,0.13,VWS V14.00,2013-06-18 08:22:00,
2013-06-18 04:27:00,75.1,75.1,29.98,SW,229,6.0,16.0,100,0.05,,---,0.13,VWS V14.00,2013-06-18 08:27:00,
2013-06-18 04:32:00,75.1,75.1,29.98,SW,224,9.0,9.0,100,0.05,,---,0.13,VWS V14.00,2013-06-18 08:32:00,
2013-06-18 04:37:00,75.1,75.1,29.98,SW,215,5.0,9.0,100,0.04,,---,0.13,VWS V14.00,2013-06-18 08:37:00,
2013-06-18 04:42:00,75.2,75.2,29.98,SW,221,5.0,9.0,100,0.04,,---,0.13,VWS V14.00,2013-06-18 08:42:00,
2013-06-18 04:47:00,75.4,75.4,29.98,SW,217,7.0,11.0,100,0.04,,---,0.13,VWS V14.00,2013-06-18 08:47:00,
2013-06-18 04:52:00,75.6,75.6,29.98,SW,220,8.0,11.0,100,0.03,,---,0.13,VWS V14.00,2013-06-18 08:52:00,
2013-06-18 04:57:00,75.8,75.8,29.99,SW,222,9.0,12.0,100,0.03,,---,0.13,VWS V14.00,2013-06-18 08:57:00,
2013-06-18 05:02:00,75.8,75.8,29.98,SSW,213,6.0,10.0,100,0.03,,---,0.13,VWS V14.00,2013-06-18 09:02:00,
2013-06-18 05:07:00,75.9,75.9,29.98,SW,217,6.0,11.0,100,0.03,,---,0.13,VWS V14.00,2013-06-18 09:07:00,
2013-06-18 05:12:00,75.9,75.9,29.98,SW,219,11.0,12.0,100,0.02,,---,0.13,VWS V14.00,2013-06-18 09:12:00,
2013-06-18 05:17:00,76.0,76.0,29.98,SW,214,6.0,13.0,100,0.02,,---,0.13,VWS V14.00,2013-06-18 09:17:00,
2013-06-18 05:22:00,76.0,76.0,29.98,SW,223,12.0,15.0,100,0.02,,---,0.13,VWS V14.00,2013-06-18 09:22:00,
2013-06-18 05:27:00,76.1,76.1,29.99,SW,227,6.0,15.0,100,0.02,,---,0.13,VWS V14.00,2013-06-18 09:27:00,
2013-06-18 05:32:00,76.1,76.1,29.99,SW,224,9.0,12.0,100,0.02,,---,0.13,VWS V14.00,2013-06-18 09:32:00,
2013-06-18 05:37:00,76.2,76.2,29.99,SW,218,7.0,12.0,100,0.02,,---,0.13,VWS V14.00,2013-06-18 09:37:00,
2013-06-18 05:42:00,76.2,76.2,29.99,SW,223,7.0,13.0,100,0.01,,---,0.13,VWS V14.00,2013-06-18 09:42:00,
2013-06-18 05:47:00,76.2,76.2,29.99,SW,221,10.0,14.0,100,0.01,,---,0.13,VWS V14.00,2013-06-18 09:47:00,
2013-06-18 05:52:00,76.2,76.2,29.99,SW,223,9.0,14.0,100,0.01,,---,0.13,VWS V14.00,2013-06-18 09:52:00,
2013-06-18 05:57:00,76.1,76.1,29.99,SW,231,8.0,14.0,100,0.01,,---,0.13,VWS V14.00,2013-06-18 09:57:00,
2013-06-18 06:02:00,76.2,76.2,29.99,SW,230,11.0,11.0,100,0.01,,---,0.13,VWS V14.00,2013-06-18 10:02:00,
2013-06-18 06:07:00,76.3,76.3,29.99,SW,234,8.0,12.0,100,0.01,,---,0.13,VWS V14.00,2013-06-18 10:07:00,
2013-06-18 06:12:00,76.2,76.2,29.99,SSW,213,8.0,12.0,100,0.01,,---,0.13,VWS V14.00,2013-06-18 10:12:00,
2013-06-18 06:17:00,76.3,76.3,29.99,SW,226,8.0,12.0,100,0.01,,---,0.13,VWS V14.00,2013-06-18 10:17:00,
2013-06-18 06:22:00,76.3,76.3,29.99,SW,220,12.0,13.0,100,0.01,,---,0.13,VWS V14.00,2013-06-18 10:22:00,
2013-06-18 06:27:00,75.9,75.9,29.99,SSW,199,8.0,24.0,100,0.01,,---,0.13,VWS V14.00,2013-06-18 10:27:00,
2013-06-18 06:32:00,75.2,75.2,29.99,SW,230,10.0,17.0,100,0.01,,---,0.13,VWS V14.00,2013-06-18 10:32:00,
2013-06-18 06:37:00,74.9,74.9,29.99,SW,220,11.0,17.0,100,0.01,,---,0.13,VWS V14.00,2013-06-18 10:37:00,
2013-06-18 06:42:00,74.8,74.8,29.99,SW,233,10.0,17.0,100,0.01,,---,0.13,VWS V14.00,2013-06-18 10:42:00,
2013-06-18 06:47:00,74.8,74.8,29.99,SW,225,8.0,17.0,100,0.01,,---,0.13,VWS V14.00,2013-06-18 10:47:00,
2013-06-18 06:52:00,74.9,74.9,29.99,SW,230,6.0,17.0,100,0.00,,---,0.13,VWS V14.00,2013-06-18 10:52:00,
2013-06-18 06:57:00,75.0,75.0,29.99,SW,234,10.0,17.0,100,0.00,,---,0.13,VWS V14.00,2013-06-18 10:57:00,
2013-06-18 07:02:00,75.0,75.0,29.99,SW,235,8.0,11.0,100,0.00,,---,0.13,VWS V14.00,2013-06-18 11:02:00,
2013-06-18 07:07:00,75.1,75.1,29.99,WSW,237,9.0,12.0,100,0.00,,---,0.13,VWS V14.00,2013-06-18 11:07:00,
2013-06-18 07:12:00,75.2,75.2,29.99,WSW,241,4.0,12.0,100,0.00,,---,0.13,VWS V14.00,2013-06-18 11:12:00,
2013-06-18 07:17:00,75.0,75.0,30.00,WSW,254,23.0,30.0,100,0.00,,---,0.15,VWS V14.00,2013-06-18 11:17:00,
2013-06-18 07:22:00,73.9,73.9,30.00,WSW,249,16.0,30.0,100,0.09,,---,0.22,VWS V14.00,2013-06-18 11:22:00,
2013-06-18 07:27:00,73.1,73.1,30.00,SW,232,10.0,30.0,100,0.12,,---,0.26,VWS V14.00,2013-06-18 11:27:00,
2013-06-18 07:32:00,72.5,72.5,30.00,SW,220,10.0,13.0,100,0.12,,---,0.27,VWS V14.00,2013-06-18 11:32:00,
2013-06-18 07:37:00,72.5,72.5,30.00,SSW,210,10.0,13.0,100,0.11,,---,0.27,VWS V14.00,2013-06-18 11:37:00,
2013-06-18 07:42:00,72.7,72.7,29.99,SW,223,11.0,15.0,100,0.10,,---,0.27,VWS V14.00,2013-06-18 11:42:00,
2013-06-18 07:47:00,72.9,72.9,29.99,SW,214,15.0,19.0,100,0.09,,---,0.27,VWS V14.00,2013-06-18 11:47:00,
2013-06-18 07:52:00,73.2,73.2,29.99,SW,214,8.0,19.0,100,0.09,,---,0.27,VWS V14.00,2013-06-18 11:52:00,
2013-06-18 07:57:00,73.4,73.4,30.00,SW,214,8.0,19.0,100,0.08,,---,0.27,VWS V14.00,2013-06-18 11:57:00,
2013-06-18 08:02:00,73.6,73.6,29.99,SSW,202,5.0,10.0,100,0.07,,---,0.27,VWS V14.00,2013-06-18 12:02:00,
2013-06-18 08:07:00,73.8,73.8,29.99,SW,224,9.0,11.0,100,0.07,,---,0.27,VWS V14.00,2013-06-18 12:07:00,
2013-06-18 08:12:00,73.9,73.9,29.99,SSW,196,5.0,11.0,100,0.06,,---,0.27,VWS V14.00,2013-06-18 12:12:00,
2013-06-18 08:17:00,74.0,74.0,29.99,SW,224,9.0,14.0,100,0.06,,---,0.27,VWS V14.00,2013-06-18 12:17:00,
2013-06-18 08:22:00,74.1,74.1,29.99,SW,222,10.0,14.0,100,0.05,,---,0.27,VWS V14.00,2013-06-18 12:22:00,
2013-06-18 08:27:00,74.1,74.1,29.99,SSW,211,9.0,14.0,100,0.05,,---,0.27,VWS V14.00,2013-06-18 12:27:00,
2013-06-18 08:32:00,74.2,74.2,29.99,SW,222,13.0,13.0,100,0.04,,---,0.27,VWS V14.00,2013-06-18 12:32:00,
2013-06-18 08:37:00,74.2,74.2,29.99,SW,217,10.0,13.0,100,0.04,,---,0.27,VWS V14.00,2013-06-18 12:37:00,
2013-06-18 08:42:00,74.3,74.3,29.99,SW,217,11.0,13.0,100,0.04,,---,0.27,VWS V14.00,2013-06-18 12:42:00,
2013-06-18 08:47:00,74.6,74.6,29.99,SSW,203,8.0,13.0,100,0.03,,---,0.27,VWS V14.00,2013-06-18 12:47:00,
2013-06-18 08:52:00,74.8,74.8,29.99,SW,226,10.0,13.0,100,0.03,,---,0.27,VWS V14.00,2013-06-18 12:52:00,
2013-06-18 08:57:00,75.0,75.0,29.98,SW,217,7.0,14.0,100,0.03,,---,0.27,VWS V14.00,2013-06-18 12:57:00,
2013-06-18 09:02:00,75.0,75.0,29.98,SW,226,10.0,12.0,100,0.03,,---,0.27,VWS V14.00,2013-06-18 13:02:00,
2013-06-18 09:07:00,75.1,75.1,29.98,SSW,206,9.0,12.0,100,0.02,,---,0.27,VWS V14.00,2013-06-18 13:07:00,
2013-06-18 09:12:00,75.3,75.3,29.98,SSW,210,3.0,12.0,100,0.02,,---,0.27,VWS V14.00,2013-06-18 13:12:00,
2013-06-18 09:17:00,75.2,75.2,29.98,SSW,204,5.0,12.0,100,0.02,,---,0.27,VWS V14.00,2013-06-18 13:17:00,
2013-06-18 09:22:00,75.3,75.3,29.98,SSW,197,4.0,12.0,100,0.02,,---,0.27,VWS V14.00,2013-06-18 13:22:00,
2013-06-18 09:27:00,75.2,75.2,29.98,SSW,201,6.0,13.0,100,0.02,,---,0.27,VWS V14.00,2013-06-18 13:27:00,
2013-06-18 09:32:00,75.3,75.3,29.97,South,189,2.0,5.0,100,0.02,,---,0.27,VWS V14.00,2013-06-18 13:32:00,
2013-06-18 09:37:00,75.4,75.4,29.97,South,191,6.0,9.0,100,0.01,,---,0.27,VWS V14.00,2013-06-18 13:37:00,
2013-06-18 09:42:00,75.5,75.5,29.97,SSW,203,4.0,9.0,100,0.01,,---,0.27,VWS V14.00,2013-06-18 13:42:00,
2013-06-18 09:47:00,75.7,75.7,29.97,SSW,210,9.0,9.0,100,0.01,,---,0.27,VWS V14.00,2013-06-18 13:47:00,
2013-06-18 09:52:00,75.9,75.9,29.97,SSW,199,5.0,11.0,100,0.01,,---,0.27,VWS V14.00,2013-06-18 13:52:00,
2013-06-18 09:57:00,76.0,76.0,29.97,SSW,192,5.0,11.0,100,0.01,,---,0.27,VWS V14.00,2013-06-18 13:57:00,
2013-06-18 10:02:00,76.1,76.1,29.97,SSW,213,9.0,10.0,100,0.01,,---,0.27,VWS V14.00,2013-06-18 14:02:00,
2013-06-18 10:07:00,76.2,76.2,29.97,SSW,205,10.0,12.0,100,0.01,,---,0.27,VWS V14.00,2013-06-18 14:07:00,
2013-06-18 10:12:00,76.3,76.3,29.97,SW,221,9.0,13.0,100,0.01,,---,0.27,VWS V14.00,2013-06-18 14:12:00,
2013-06-18 10:17:00,76.3,76.3,29.97,SW,221,9.0,15.0,100,0.01,,---,0.27,VWS V14.00,2013-06-18 14:17:00,
2013-06-18 10:22:00,76.2,76.2,29.97,SW,219,12.0,15.0,100,0.01,,---,0.27,VWS V14.00,2013-06-18 14:22:00,
2013-06-18 10:27:00,75.8,75.8,29.97,SSW,213,8.0,19.0,100,0.01,,---,0.27,VWS V14.00,2013-06-18 14:27:00,
2013-06-18 10:32:00,75.8,75.8,29.97,SW,225,11.0,18.0,100,0.01,,---,0.27,VWS V14.00,2013-06-18 14:32:00,
2013-06-18 10:37:00,75.8,75.8,29.96,SW,225,15.0,21.0,100,0.01,,---,0.27,VWS V14.00,2013-06-18 14:37:00,
2013-06-18 10:42:00,75.8,75.8,29.96,SSW,208,12.0,21.0,100,0.01,,---,0.27,VWS V14.00,2013-06-18 14:42:00,
2013-06-18 10:47:00,75.9,75.9,29.96,SSW,213,11.0,21.0,100,0.00,,---,0.27,VWS V14.00,2013-06-18 14:47:00,
2013-06-18 10:52:00,75.8,75.8,29.96,SW,231,11.0,21.0,100,0.00,,---,0.27,VWS V14.00,2013-06-18 14:52:00,
2013-06-18 10:57:00,75.8,75.8,29.97,SW,225,14.0,21.0,100,0.00,,---,0.27,VWS V14.00,2013-06-18 14:57:00,
2013-06-18 11:02:00,76.0,76.0,29.96,SW,236,10.0,17.0,100,0.00,,---,0.27,VWS V14.00,2013-06-18 15:02:00,
2013-06-18 11:07:00,76.3,76.3,29.97,WSW,237,11.0,17.0,100,0.00,,---,0.27,VWS V14.00,2013-06-18 15:07:00,
2013-06-18 11:12:00,76.5,76.5,29.97,WSW,251,9.0,17.0,100,0.00,,---,0.27,VWS V14.00,2013-06-18 15:12:00,
2013-06-18 11:17:00,76.7,76.7,29.97,WSW,238,12.0,17.0,100,0.00,,---,0.27,VWS V14.00,2013-06-18 15:17:00,
2013-06-18 11:22:00,77.0,77.0,29.97,WSW,242,12.0,17.0,100,0.00,,---,0.27,VWS V14.00,2013-06-18 15:22:00,
2013-06-18 11:27:00,77.2,77.2,29.97,WSW,244,13.0,17.0,100,0.00,,---,0.27,VWS V14.00,2013-06-18 15:27:00,
2013-06-18 11:32:00,77.3,77.3,29.97,West,261,10.0,15.0,100,0.00,,---,0.27,VWS V14.00,2013-06-18 15:32:00,
2013-06-18 11:37:00,77.4,77.4,29.97,WSW,244,14.0,15.0,100,0.00,,---,0.27,VWS V14.00,2013-06-18 15:37:00,
2013-06-18 11:42:00,77.5,77.5,29.97,WSW,248,13.0,16.0,100,0.00,,---,0.27,VWS V14.00,2013-06-18 15:42:00,
2013-06-18 11:47:00,77.7,77.7,29.96,WSW,240,12.0,16.0,100,0.00,,---,0.27,VWS V14.00,2013-06-18 15:47:00,
2013-06-18 11:52:00,77.7,77.7,29.96,WSW,249,13.0,16.0,100,0.00,,---,0.27,VWS V14.00,2013-06-18 15:52:00,
2013-06-18 11:57:00,77.7,77.7,29.96,WSW,248,8.0,17.0,100,0.00,,---,0.27,VWS V14.00,2013-06-18 15:57:00,
2013-06-18 12:02:00,78.0,78.0,29.96,WSW,247,10.0,18.0,100,0.00,,---,0.27,VWS V14.00,2013-06-18 16:02:00,
2013-06-18 12:07:00,78.1,78.1,29.96,WSW,240,9.0,18.0,100,0.00,,---,0.27,VWS V14.00,2013-06-18 16:07:00,
2013-06-18 12:12:00,78.4,78.4,29.96,WSW,252,11.0,18.0,100,0.00,,---,0.27,VWS V14.00,2013-06-18 16:12:00,
2013-06-18 12:17:00,78.7,78.7,29.96,WSW,238,9.0,19.0,100,0.00,,---,0.27,VWS V14.00,2013-06-18 16:17:00,
2013-06-18 12:22:00,78.8,78.8,29.96,WSW,243,12.0,19.0,100,0.00,,---,0.27,VWS V14.00,2013-06-18 16:22:00,
2013-06-18 12:27:00,78.9,78.9,29.96,WSW,240,14.0,19.0,100,0.00,,---,0.27,VWS V14.00,2013-06-18 16:27:00,
2013-06-18 12:32:00,79.0,79.0,29.96,SW,233,11.0,16.0,100,0.00,,---,0.27,VWS V14.00,2013-06-18 16:32:00,
2013-06-18 12:37:00,79.2,79.2,29.96,WSW,245,12.0,17.0,100,0.00,,---,0.27,VWS V14.00,2013-06-18 16:37:00,
2013-06-18 12:42:00,79.4,79.4,29.95,WSW,249,11.0,17.0,100,0.00,,---,0.27,VWS V14.00,2013-06-18 16:42:00,
2013-06-18 12:47:00,79.6,79.6,29.95,WSW,252,10.0,17.0,100,0.00,,---,0.27,VWS V14.00,2013-06-18 16:47:00,
2013-06-18 12:52:00,79.7,79.7,29.95,WSW,244,16.0,17.0,100,0.00,,---,0.27,VWS V14.00,2013-06-18 16:52:00,
2013-06-18 12:57:00,79.4,79.4,29.95,SW,233,14.0,18.0,100,0.00,,---,0.27,VWS V14.00,2013-06-18 16:57:00,
2013-06-18 13:02:00,79.3,79.3,29.95,SW,233,11.0,16.0,100,0.00,,---,0.27,VWS V14.00,2013-06-18 17:02:00,
2013-06-18 13:07:00,79.2,79.2,29.94,SW,228,12.0,18.0,100,0.00,,---,0.27,VWS V14.00,2013-06-18 17:07:00,
2013-06-18 13:12:00,79.4,79.4,29.94,WSW,244,10.0,18.0,100,0.00,,---,0.27,VWS V14.00,2013-06-18 17:12:00,
2013-06-18 13:17:00,79.3,79.3,29.95,SW,228,15.0,19.0,100,0.00,,---,0.27,VWS V14.00,2013-06-18 17:17:00,
2013-06-18 13:22:00,79.3,79.3,29.95,SW,235,13.0,19.0,100,0.00,,---,0.27,VWS V14.00,2013-06-18 17:22:00,
2013-06-18 13:27:00,79.3,79.3,29.94,WSW,244,11.0,19.0,100,0.00,,---,0.27,VWS V14.00,2013-06-18 17:27:00,
2013-06-18 13:32:00,79.1,79.1,29.94,SW,235,11.0,18.0,100,0.00,,---,0.27,VWS V14.00,2013-06-18 17:32:00,
2013-06-18 13:37:00,79.1,79.1,29.94,SW,233,13.0,18.0,100,0.00,,---,0.27,VWS V14.00,2013-06-18 17:37:00,
2013-06-18 13:42:00,79.4,79.4,29.94,WSW,241,12.0,19.0,100,0.00,,---,0.27,VWS V14.00,2013-06-18 17:42:00,
2013-06-18 13:47:00,79.7,79.7,29.94,SW,227,14.0,19.0,100,0.00,,---,0.27,VWS V14.00,2013-06-18 17:47:00,
2013-06-18 13:52:00,79.8,79.8,29.93,SW,226,14.0,20.0,100,0.00,,---,0.27,VWS V14.00,2013-06-18 17:52:00,
2013-06-18 13:57:00,80.0,80.0,29.93,SW,221,11.0,20.0,100,0.00,,---,0.27,VWS V14.00,2013-06-18 17:57:00,
2013-06-18 14:02:00,80.2,80.2,29.93,SW,233,15.0,19.0,100,0.00,,---,0.27,VWS V14.00,2013-06-18 18:02:00,
2013-06-18 14:07:00,80.2,80.2,29.93,SW,230,17.0,20.0,100,0.00,,---,0.27,VWS V14.00,2013-06-18 18:07:00,
2013-06-18 14:12:00,80.2,80.2,29.93,SW,227,12.0,20.0,100,0.00,,---,0.27,VWS V14.00,2013-06-18 18:12:00,
2013-06-18 14:17:00,80.3,80.3,29.93,SSW,206,14.0,20.0,100,0.00,,---,0.27,VWS V14.00,2013-06-18 18:17:00,
2013-06-18 14:22:00,80.3,80.3,29.92,SW,225,18.0,21.0,100,0.00,,---,0.27,VWS V14.00,2013-06-18 18:22:00,
2013-06-18 14:27:00,80.7,80.7,29.92,SSW,209,13.0,22.0,100,0.00,,---,0.27,VWS V14.00,2013-06-18 18:27:00,
2013-06-18 14:32:00,80.6,80.6,29.93,SW,215,14.0,15.0,100,0.00,,---,0.27,VWS V14.00,2013-06-18 18:32:00,
2013-06-18 14:37:00,80.6,80.6,29.93,SW,226,18.0,18.0,100,0.00,,---,0.27,VWS V14.00,2013-06-18 18:37:00,
2013-06-18 14:42:00,80.4,80.4,29.92,SW,220,19.0,23.0,100,0.00,,---,0.27,VWS V14.00,2013-06-18 18:42:00,
2013-06-18 14:47:00,80.2,80.2,29.92,SW,223,14.0,24.0,100,0.00,,---,0.27,VWS V14.00,2013-06-18 18:47:00,
2013-06-18 14:52:00,80.1,80.1,29.92,SW,216,16.0,24.0,100,0.00,,---,0.27,VWS V14.00,2013-06-18 18:52:00,
2013-06-18 14:57:00,80.1,80.1,29.93,SW,214,18.0,24.0,100,0.00,,---,0.27,VWS V14.00,2013-06-18 18:57:00,
2013-06-18 15:02:00,80.4,80.4,29.92,SW,233,15.0,20.0,100,0.00,,---,0.27,VWS V14.00,2013-06-18 19:02:00,
2013-06-18 15:07:00,80.5,80.5,29.92,SW,229,16.0,20.0,100,0.00,,---,0.27,VWS V14.00,2013-06-18 19:07:00,
2013-06-18 15:12:00,80.8,80.8,29.92,SW,215,20.0,20.0,100,0.00,,---,0.27,VWS V14.00,2013-06-18 19:12:00,
2013-06-18 15:17:00,80.7,80.7,29.92,SW,224,15.0,20.0,100,0.00,,---,0.27,VWS V14.00,2013-06-18 19:17:00,
2013-06-18 15:22:00,80.9,80.9,29.92,SW,218,17.0,22.0,100,0.00,,---,0.27,VWS V14.00,2013-06-18 19:22:00,
2013-06-18 15:27:00,80.9,80.9,29.91,SSW,205,9.0,22.0,100,0.00,,---,0.27,VWS V14.00,2013-06-18 19:27:00,
2013-06-18 15:32:00,80.9,80.9,29.91,SW,228,15.0,21.0,100,0.00,,---,0.27,VWS V14.00,2013-06-18 19:32:00,
2013-06-18 15:37:00,80.9,80.9,29.90,SW,219,12.0,21.0,100,0.00,,---,0.27,VWS V14.00,2013-06-18 19:37:00,
2013-06-18 15:42:00,80.9,80.9,29.91,SW,226,16.0,21.0,100,0.00,,---,0.27,VWS V14.00,2013-06-18 19:42:00,
2013-06-18 15:47:00,80.8,80.8,29.91,SW,217,10.0,21.0,100,0.00,,---,0.27,VWS V14.00,2013-06-18 19:47:00,
2013-06-18 15:51:00,80.8,80.8,29.90,SW,230,13.0,21.0,100,0.00,,---,0.27,VWS V14.00,2013-06-18 19:51:00,
2013-06-18 15:56:00,80.9,80.9,29.91,SW,227,15.0,23.0,100,0.00,,---,0.27,VWS V14.00,2013-06-18 19:56:00,
2013-06-18 16:01:00,81.1,81.1,29.90,SW,214,16.0,19.0,100,0.00,,---,0.27,VWS V14.00,2013-06-18 20:01:00,
2013-06-18 16:06:00,81.4,81.4,29.90,SW,218,12.0,21.0,100,0.00,,---,0.27,VWS V14.00,2013-06-18 20:06:00,
2013-06-18 16:11:00,81.4,81.4,29.90,SW,229,14.0,21.0,100,0.00,,---,0.27,VWS V14.00,2013-06-18 20:11:00,
2013-06-18 16:16:00,81.4,81.4,29.90,SW,222,15.0,21.0,100,0.00,,---,0.27,VWS V14.00,2013-06-18 20:16:00,
2013-06-18 16:21:00,81.3,81.3,29.90,SW,227,15.0,21.0,100,0.00,,---,0.27,VWS V14.00,2013-06-18 20:21:00,
2013-06-18 16:26:00,81.1,81.1,29.89,SW,230,13.0,21.0,100,0.00,,---,0.27,VWS V14.00,2013-06-18 20:26:00,
2013-06-18 16:31:00,80.9,80.9,29.90,SW,221,12.0,20.0,100,0.00,,---,0.27,VWS V14.00,2013-06-18 20:31:00,
2013-06-18 16:36:00,80.8,80.8,29.89,SSW,206,11.0,20.0,100,0.00,,---,0.27,VWS V14.00,2013-06-18 20:36:00,
2013-06-18 16:41:00,80.7,80.7,29.89,SSW,210,13.0,20.0,100,0.00,,---,0.27,VWS V14.00,2013-06-18 20:41:00,
2013-06-18 16:46:00,80.5,80.5,29.89,SSW,213,11.0,20.0,100,0.00,,---,0.27,VWS V14.00,2013-06-18 20:46:00,
2013-06-18 16:51:00,80.4,80.4,29.89,SW,219,16.0,20.0,100,0.00,,---,0.27,VWS V14.00,2013-06-18 20:51:00,
2013-06-18 16:56:00,80.2,80.2,29.89,SSW,209,14.0,20.0,100,0.00,,---,0.27,VWS V14.00,2013-06-18 20:56:00,
2013-06-18 17:01:00,80.1,80.1,29.89,SSW,198,12.0,16.0,100,0.00,,---,0.27,VWS V14.00,2013-06-18 21:01:00,
2013-06-18 17:06:00,80.1,80.1,29.89,SSW,208,12.0,21.0,100,0.00,,---,0.27,VWS V14.00,2013-06-18 21:06:00,
2013-06-18 17:11:00,80.1,80.1,29.89,SSW,204,9.0,21.0,100,0.00,,---,0.27,VWS V14.00,2013-06-18 21:11:00,
2013-06-18 17:16:00,80.2,80.2,29.88,SW,219,17.0,22.0,100,0.00,,---,0.27,VWS V14.00,2013-06-18 21:16:00,
2013-06-18 17:21:00,80.3,80.3,29.88,SSW,210,14.0,22.0,100,0.00,,---,0.27,VWS V14.00,2013-06-18 21:21:00,
2013-06-18 17:26:00,80.2,80.2,29.88,SSW,200,7.0,23.0,100,0.00,,---,0.27,VWS V14.00,2013-06-18 21:26:00,
2013-06-18 17:31:00,80.3,80.3,29.88,SSW,206,16.0,23.0,100,0.00,,---,0.27,VWS V14.00,2013-06-18 21:31:00,
2013-06-18 17:36:00,80.2,80.2,29.88,SSW,212,17.0,23.0,100,0.00,,---,0.27,VWS V14.00,2013-06-18 21:36:00,
2013-06-18 17:41:00,80.2,80.2,29.88,SW,214,15.0,23.0,100,0.00,,---,0.27,VWS V14.00,2013-06-18 21:41:00,
2013-06-18 17:46:00,80.1,80.1,29.88,SSW,209,9.0,23.0,100,0.00,,---,0.27,VWS V14.00,2013-06-18 21:46:00,
2013-06-18 17:51:00,80.2,80.2,29.88,SSW,209,15.0,23.0,100,0.00,,---,0.27,VWS V14.00,2013-06-18 21:51:00,
2013-06-18 17:56:00,80.4,80.4,29.87,SSW,206,14.0,23.0,100,0.00,,---,0.27,VWS V14.00,2013-06-18 21:56:00,
2013-06-18 18:01:00,80.4,80.4,29.87,SSW,213,19.0,23.0,100,0.00,,---,0.27,VWS V14.00,2013-06-18 22:01:00,
2013-06-18 18:06:00,80.4,80.4,29.87,SW,217,18.0,23.0,100,0.00,,---,0.27,VWS V14.00,2013-06-18 22:06:00,
2013-06-18 18:11:00,80.5,80.5,29.86,SW,219,21.0,26.0,100,0.00,,---,0.27,VWS V14.00,2013-06-18 22:11:00,
2013-06-18 18:16:00,80.4,80.4,29.86,SW,218,16.0,26.0,100,0.00,,---,0.27,VWS V14.00,2013-06-18 22:16:00,
2013-06-18 18:21:00,80.4,80.4,29.86,SSW,212,15.0,26.0,100,0.00,,---,0.27,VWS V14.00,2013-06-18 22:21:00,
2013-06-18 18:26:00,80.2,80.2,29.86,SSW,213,16.0,26.0,100,0.00,,---,0.27,VWS V14.00,2013-06-18 22:26:00,
2013-06-18 18:31:00,80.0,80.0,29.86,SW,225,22.0,25.0,100,0.00,,---,0.27,VWS V14.00,2013-06-18 22:31:00,
2013-06-18 18:36:00,79.8,79.8,29.86,SSW,201,12.0,25.0,100,0.00,,---,0.27,VWS V14.00,2013-06-18 22:36:00,
2013-06-18 18:41:00,79.8,79.8,29.86,SSW,207,18.0,25.0,100,0.00,,---,0.27,VWS V14.00,2013-06-18 22:41:00,
2013-06-18 18:46:00,79.9,79.9,29.86,SSW,211,14.0,25.0,100,0.00,,---,0.27,VWS V14.00,2013-06-18 22:46:00,
2013-06-18 18:51:00,79.9,79.9,29.85,SSW,207,16.0,25.0,100,0.00,,---,0.27,VWS V14.00,2013-06-18 22:51:00,
2013-06-18 18:56:00,80.1,80.1,29.85,SW,218,17.0,25.0,100,0.00,,---,0.27,VWS V14.00,2013-06-18 22:56:00,
2013-06-18 19:01:00,80.0,80.0,29.85,SSW,207,8.0,20.0,100,0.00,,---,0.27,VWS V14.00,2013-06-18 23:01:00,
2013-06-18 19:06:00,79.9,79.9,29.85,SW,220,18.0,21.0,100,0.00,,---,0.27,VWS V14.00,2013-06-18 23:06:00,
2013-06-18 19:11:00,79.9,79.9,29.86,SW,220,16.0,22.0,100,0.00,,---,0.27,VWS V14.00,2013-06-18 23:11:00,
2013-06-18 19:16:00,79.8,79.8,29.86,SSW,209,13.0,22.0,100,0.00,,---,0.27,VWS V14.00,2013-06-18 23:16:00,
2013-06-18 19:21:00,79.7,79.7,29.86,SW,219,17.0,22.0,100,0.00,,---,0.27,VWS V14.00,2013-06-18 23:21:00,
2013-06-18 19:26:00,79.6,79.6,29.86,SW,214,21.0,22.0,100,0.00,,---,0.27,VWS V14.00,2013-06-18 23:26:00,
2013-06-18 19:31:00,79.6,79.6,29.86,SW,216,23.0,23.0,100,0.00,,---,0.27,VWS V14.00,2013-06-18 23:31:00,
2013-06-18 19:36:00,79.4,79.4,29.86,SW,218,18.0,23.0,100,0.00,,---,0.27,VWS V14.00,2013-06-18 23:36:00,
2013-06-18 19:41:00,79.3,79.3,29.85,SW,223,19.0,24.0,100,0.00,,---,0.27,VWS V14.00,2013-06-18 23:41:00,
2013-06-18 19:46:00,79.2,79.2,29.86,SW,225,16.0,24.0,100,0.00,,---,0.27,VWS V14.00,2013-06-18 23:46:00,
2013-06-18 19:51:00,79.2,79.2,29.86,SW,226,15.0,24.0,100,0.00,,---,0.27,VWS V14.00,2013-06-18 23:51:00,
2013-06-18 19:56:00,79.1,79.1,29.86,SW,218,15.0,24.0,100,0.00,,---,0.27,VWS V14.00,2013-06-18 23:56:00,
2013-06-18 20:01:00,79.0,79.0,29.85,SW,219,15.0,20.0,100,0.00,,---,0.27,VWS V14.00,2013-06-19 00:01:00,
2013-06-18 20:06:00,78.9,78.9,29.85,SW,223,17.0,22.0,100,0.00,,---,0.27,VWS V14.00,2013-06-19 00:06:00,
2013-06-18 20:11:00,78.8,78.8,29.85,SSW,213,20.0,22.0,100,0.00,,---,0.27,VWS V14.00,2013-06-19 00:11:00,
2013-06-18 20:16:00,78.8,78.8,29.85,SW,217,19.0,23.0,100,0.00,,---,0.27,VWS V14.00,2013-06-19 00:16:00,
2013-06-18 20:21:00,78.7,78.7,29.85,SSW,213,14.0,23.0,100,0.00,,---,0.27,VWS V14.00,2013-06-19 00:21:00,
2013-06-18 20:26:00,78.6,78.6,29.86,SW,233,18.0,23.0,100,0.00,,---,0.27,VWS V14.00,2013-06-19 00:26:00,
2013-06-18 20:31:00,78.6,78.6,29.86,SW,229,20.0,23.0,100,0.00,,---,0.27,VWS V14.00,2013-06-19 00:31:00,
2013-06-18 20:36:00,78.6,78.6,29.85,SW,221,16.0,23.0,100,0.00,,---,0.27,VWS V14.00,2013-06-19 00:36:00,
2013-06-18 20:41:00,78.5,78.5,29.86,SW,214,16.0,23.0,100,0.00,,---,0.27,VWS V14.00,2013-06-19 00:41:00,
2013-06-18 20:46:00,78.5,78.5,29.86,SW,225,12.0,24.0,100,0.00,,---,0.27,VWS V14.00,2013-06-19 00:46:00,
2013-06-18 20:51:00,78.5,78.5,29.87,SW,217,23.0,24.0,100,0.00,,---,0.27,VWS V14.00,2013-06-19 00:51:00,
2013-06-18 20:56:00,78.5,78.5,29.87,SW,228,14.0,24.0,100,0.00,,---,0.27,VWS V14.00,2013-06-19 00:56:00,
2013-06-18 21:01:00,78.5,78.5,29.87,SW,236,17.0,19.0,100,0.00,,---,0.27,VWS V14.00,2013-06-19 01:01:00,
2013-06-18 21:06:00,78.5,78.5,29.87,SW,234,14.0,21.0,100,0.00,,---,0.27,VWS V14.00,2013-06-19 01:06:00,
2013-06-18 21:11:00,78.4,78.4,29.87,SW,223,12.0,21.0,100,0.00,,---,0.27,VWS V14.00,2013-06-19 01:11:00,
2013-06-18 21:16:00,78.5,78.5,29.86,SW,221,14.0,21.0,100,0.00,,---,0.27,VWS V14.00,2013-06-19 01:16:00,
2013-06-18 21:21:00,78.4,78.4,29.87,SW,233,21.0,21.0,100,0.00,,---,0.27,VWS V14.00,2013-06-19 01:21:00,
2013-06-18 21:26:00,78.5,78.5,29.87,SW,218,20.0,26.0,100,0.00,,---,0.27,VWS V14.00,2013-06-19 01:26:00,
2013-06-18 21:31:00,78.4,78.4,29.88,SW,233,22.0,22.0,100,0.00,,---,0.27,VWS V14.00,2013-06-19 01:31:00,
2013-06-18 21:36:00,78.5,78.5,29.88,WSW,237,20.0,26.0,100,0.00,,---,0.27,VWS V14.00,2013-06-19 01:36:00,
2013-06-18 21:41:00,78.4,78.4,29.88,SW,218,19.0,26.0,100,0.00,,---,0.27,VWS V14.00,2013-06-19 01:41:00,
2013-06-18 21:46:00,78.4,78.4,29.88,SW,221,21.0,26.0,100,0.00,,---,0.27,VWS V14.00,2013-06-19 01:46:00,
2013-06-18 21:51:00,78.4,78.4,29.88,SW,217,15.0,26.0,100,0.00,,---,0.27,VWS V14.00,2013-06-19 01:51:00,
2013-06-18 21:56:00,78.4,78.4,29.88,SW,230,15.0,26.0,100,0.00,,---,0.27,VWS V14.00,2013-06-19 01:56:00,
2013-06-18 22:01:00,78.4,78.4,29.88,SW,232,20.0,21.0,100,0.00,,---,0.27,VWS V14.00,2013-06-19 02:01:00,
2013-06-18 22:06:00,78.4,78.4,29.88,SW,217,17.0,27.0,100,0.00,,---,0.27,VWS V14.00,2013-06-19 02:06:00,
2013-06-18 22:11:00,78.4,78.4,29.89,SW,230,17.0,27.0,100,0.00,,---,0.27,VWS V14.00,2013-06-19 02:11:00,
2013-06-18 22:16:00,78.4,78.4,29.89,SW,229,13.0,27.0,100,0.00,,---,0.27,VWS V14.00,2013-06-19 02:16:00,
2013-06-18 22:21:00,78.4,78.4,29.89,WSW,238,15.0,30.0,100,0.00,,---,0.27,VWS V14.00,2013-06-19 02:21:00,
2013-06-18 22:26:00,78.3,78.3,29.89,WSW,245,25.0,30.0,100,0.00,,---,0.27,VWS V14.00,2013-06-19 02:26:00,
2013-06-18 22:31:00,77.9,77.9,29.89,WSW,241,18.0,25.0,100,0.00,,---,0.27,VWS V14.00,2013-06-19 02:31:00,
2013-06-18 22:36:00,77.6,77.6,29.89,WSW,251,20.0,25.0,100,0.00,,---,0.27,VWS V14.00,2013-06-19 02:36:00,
2013-06-18 22:41:00,77.4,77.1,29.90,WSW,243,20.0,25.0,99,0.00,,---,0.27,VWS V14.00,2013-06-19 02:41:00,
2013-06-18 22:46:00,77.1,76.8,29.89,SW,230,14.0,25.0,99,0.00,,---,0.27,VWS V14.00,2013-06-19 02:46:00,
2013-06-18 22:51:00,77.0,77.0,29.89,SW,231,21.0,25.0,100,0.00,,---,0.27,VWS V14.00,2013-06-19 02:51:00,
2013-06-18 22:56:00,77.0,77.0,29.89,WSW,238,16.0,25.0,100,0.00,,---,0.27,VWS V14.00,2013-06-19 02:56:00,
2013-06-18 23:01:00,76.8,76.8,29.90,WSW,239,12.0,18.0,100,0.00,,---,0.27,VWS V14.00,2013-06-19 03:01:00,
2013-06-18 23:06:00,76.6,76.3,29.90,SW,234,14.0,19.0,99,0.00,,---,0.27,VWS V14.00,2013-06-19 03:06:00,
2013-06-18 23:11:00,76.5,76.2,29.90,WSW,237,6.0,19.0,99,0.00,,---,0.27,VWS V14.00,2013-06-19 03:11:00,
2013-06-18 23:16:00,76.5,76.5,29.90,SW,234,13.0,19.0,100,0.00,,---,0.27,VWS V14.00,2013-06-19 03:16:00,
2013-06-18 23:21:00,76.6,76.6,29.90,WSW,244,12.0,19.0,100,0.00,,---,0.27,VWS V14.00,2013-06-19 03:21:00,
2013-06-18 23:26:00,76.7,76.7,29.90,WSW,238,11.0,19.0,100,0.00,,---,0.27,VWS V14.00,2013-06-19 03:26:00,
2013-06-18 23:31:00,76.9,76.9,29.90,WSW,241,17.0,17.0,100,0.00,,---,0.27,VWS V14.00,2013-06-19 03:31:00,
2013-06-18 23:36:00,77.2,77.2,29.90,SW,230,15.0,18.0,100,0.00,,---,0.27,VWS V14.00,2013-06-19 03:36:00,
2013-06-18 23:41:00,77.3,77.3,29.90,SW,231,17.0,21.0,100,0.00,,---,0.27,VWS V14.00,2013-06-19 03:41:00,
2013-06-18 23:46:00,77.4,77.4,29.90,SW,221,21.0,22.0,100,0.00,,---,0.27,VWS V14.00,2013-06-19 03:46:00,
2013-06-18 23:51:00,77.5,77.5,29.89,SW,234,18.0,22.0,100,0.00,,---,0.27,VWS V14.00,2013-06-19 03:51:00,
2013-06-18 23:56:00,77.6,77.6,29.89,SW,218,20.0,25.0,100,0.00,,---,0.27,VWS V14.00,2013-06-19 03:56:00,